createdAt,value
2019-03-21T00:00:59.106Z,68.37
2019-03-21T00:03:29.334Z,65.40
2019-03-21T00:06:00.002Z,65.10
2019-03-21T00:08:30.240Z,71.53
2019-03-21T00:11:12.169Z,78.43
2019-03-21T00:13:42.732Z,67.77
2019-03-21T00:16:13.675Z,59.40
2019-03-21T00:18:42.049Z,49.57
2019-03-21T00:21:10.245Z,52.90
2019-03-21T00:23:38.695Z,51.27
2019-03-21T00:26:12.223Z,56.07
2019-03-21T00:28:46.061Z,54.10
2019-03-21T00:31:16.652Z,54.97
2019-03-21T00:33:45.331Z,54.23
2019-03-21T00:36:13.529Z,61.37
2019-03-21T00:38:41.707Z,60.73
2019-03-21T00:41:09.938Z,74.83
2019-03-21T00:43:40.340Z,67.53
2019-03-21T00:46:10.985Z,58.40
2019-03-21T00:48:41.190Z,59.53
2019-03-21T00:51:11.664Z,59.43
2019-03-21T00:53:39.808Z,62.37
2019-03-21T00:56:10.447Z,53.60
2019-03-21T00:58:38.790Z,58.13
2019-03-21T01:01:07.821Z,53.33
2019-03-21T01:03:36.883Z,57.50
2019-03-21T01:06:07.303Z,60.53
2019-03-21T01:08:37.708Z,61.40
2019-03-21T01:11:05.964Z,48.67
2019-03-21T01:13:35.532Z,47.40
2019-03-21T01:16:03.796Z,49.37
2019-03-21T01:18:32.434Z,43.50
2019-03-21T01:21:04.766Z,37.10
2019-03-21T01:23:32.917Z,38.83
2019-03-21T01:26:08.599Z,40.40
2019-03-21T01:28:37.184Z,49.57
2019-03-21T01:31:07.837Z,46.00
2019-03-21T01:33:38.116Z,60.77
2019-03-21T01:36:08.718Z,44.73
2019-03-21T01:38:36.905Z,43.67
2019-03-21T01:41:09.264Z,43.43
2019-03-21T01:43:37.449Z,42.50
2019-03-21T01:46:17.960Z,45.90
2019-03-21T01:48:46.149Z,46.80
2019-03-21T01:51:14.332Z,43.20
2019-03-21T01:53:42.518Z,41.53
2019-03-21T01:56:13.122Z,38.50
2019-03-21T01:58:43.312Z,35.23
2019-03-21T02:01:13.611Z,39.63
2019-03-21T02:03:41.867Z,32.10
2019-03-21T02:06:12.510Z,32.67
2019-03-21T02:08:42.954Z,34.33
2019-03-21T02:11:13.048Z,33.90
2019-03-21T02:13:43.428Z,37.80
2019-03-21T02:16:11.623Z,43.90
2019-03-21T02:18:41.910Z,35.70
2019-03-21T02:21:11.907Z,35.90
2019-03-21T02:23:42.264Z,37.47
2019-03-21T02:26:10.524Z,38.77
2019-03-21T02:28:38.753Z,40.23
2019-03-21T02:31:10.350Z,36.20
2019-03-21T02:33:40.135Z,35.40
2019-03-21T02:36:12.484Z,36.43
2019-03-21T02:38:43.060Z,34.73
2019-03-21T02:41:14.991Z,32.17
2019-03-21T02:43:43.084Z,33.80
2019-03-21T02:46:13.466Z,33.87
2019-03-21T02:48:41.726Z,29.80
2019-03-21T02:51:14.007Z,34.10
2019-03-21T02:53:44.461Z,27.73
2019-03-21T02:56:17.286Z,28.93
2019-03-21T02:58:47.720Z,130.77
2019-03-21T03:01:16.018Z,46.87
2019-03-21T03:03:46.428Z,33.10
2019-03-21T03:06:14.609Z,37.90
2019-03-21T03:08:42.837Z,53.23
2019-03-21T03:11:12.625Z,62.27
2019-03-21T03:13:44.979Z,51.43
2019-03-21T03:16:15.121Z,52.40
2019-03-21T03:18:45.416Z,43.50
2019-03-21T03:21:15.837Z,44.43
2019-03-21T03:23:46.077Z,40.73
2019-03-21T03:26:14.325Z,39.00
2019-03-21T03:28:43.437Z,47.87
2019-03-21T03:31:13.875Z,42.97
2019-03-21T03:33:43.061Z,43.97
2019-03-21T03:36:14.441Z,43.00
2019-03-21T03:38:44.776Z,44.80
2019-03-21T03:41:14.358Z,48.80
2019-03-21T03:43:42.497Z,54.47
2019-03-21T03:46:13.206Z,48.93
2019-03-21T03:48:43.671Z,50.40
2019-03-21T03:51:14.090Z,45.20
2019-03-21T03:53:44.516Z,38.00
2019-03-21T03:56:12.710Z,46.73
2019-03-21T03:58:42.464Z,50.87
2019-03-21T04:01:10.694Z,42.93
2019-03-21T04:03:38.854Z,49.60
2019-03-21T04:06:07.045Z,44.93
2019-03-21T04:08:35.312Z,46.27
2019-03-21T04:11:03.558Z,45.90
2019-03-21T04:13:31.834Z,41.53
2019-03-21T04:16:02.369Z,43.40
2019-03-21T04:18:30.504Z,38.27
2019-03-21T04:21:00.328Z,41.23
2019-03-21T04:23:28.585Z,45.40
2019-03-21T04:25:58.378Z,46.97
2019-03-21T04:28:26.576Z,58.80
2019-03-21T04:30:56.983Z,46.07
2019-03-21T04:33:44.637Z,43.60
2019-03-21T04:36:16.065Z,45.00
2019-03-21T04:38:44.273Z,50.17
2019-03-21T04:41:12.407Z,48.20
2019-03-21T04:43:43.007Z,46.70
2019-03-21T04:46:11.202Z,46.10
2019-03-21T04:48:39.433Z,48.20
2019-03-21T04:51:09.777Z,51.13
2019-03-21T04:53:40.181Z,51.87
2019-03-21T04:56:08.334Z,51.37
2019-03-21T04:58:38.820Z,52.73
2019-03-21T05:01:07.020Z,55.67
2019-03-21T05:03:35.222Z,55.13
2019-03-21T05:06:03.413Z,51.30
2019-03-21T05:08:31.570Z,59.33
2019-03-21T05:11:02.060Z,56.97
2019-03-21T05:13:32.257Z,60.67
2019-03-21T05:16:10.447Z,70.97
2019-03-21T05:18:36.973Z,70.27
2019-03-21T05:21:09.788Z,69.67
2019-03-21T05:23:37.974Z,61.37
2019-03-21T05:26:08.650Z,71.73
2019-03-21T05:28:36.883Z,79.70
2019-03-21T05:31:09.098Z,178.73
2019-03-21T05:33:37.298Z,74.40
2019-03-21T05:36:05.495Z,78.67
2019-03-21T05:38:36.979Z,102.03
2019-03-21T05:41:05.165Z,122.17
2019-03-21T05:43:43.291Z,239.50
2019-03-21T05:46:11.476Z,399.77
2019-03-21T05:48:39.628Z,197.83
2019-03-21T05:51:10.201Z,212.20
2019-03-21T05:53:40.664Z,202.97
2019-03-21T05:56:11.228Z,184.97
2019-03-21T05:58:39.429Z,140.73
2019-03-21T06:01:11.756Z,109.17
2019-03-21T06:03:51.990Z,98.10
2019-03-21T06:06:30.912Z,110.70
2019-03-21T06:08:59.151Z,117.47
2019-03-21T06:11:27.886Z,110.07
2019-03-21T06:13:56.038Z,99.20
2019-03-21T06:16:24.286Z,98.93
2019-03-21T06:18:58.493Z,141.30
2019-03-21T06:21:30.537Z,146.80
2019-03-21T06:24:12.315Z,163.23
2019-03-21T06:27:13.714Z,132.80
2019-03-21T06:29:32.492Z,139.03
2019-03-21T06:32:00.717Z,206.50
2019-03-21T06:34:28.874Z,202.57
2019-03-21T06:36:57.150Z,180.70
2019-03-21T06:39:27.667Z,182.33
2019-03-21T06:41:59.258Z,203.00
2019-03-21T06:44:27.455Z,178.03
2019-03-21T06:46:55.805Z,179.53
2019-03-21T06:49:24.205Z,137.67
2019-03-21T06:51:52.423Z,187.97
2019-03-21T06:54:25.406Z,105.53
2019-03-21T06:56:53.875Z,93.83
2019-03-21T06:59:22.097Z,115.83
2019-03-21T07:01:50.243Z,96.93
2019-03-21T07:04:18.452Z,102.40
2019-03-21T07:06:49.045Z,90.17
2019-03-21T07:09:17.485Z,99.90
2019-03-21T07:11:45.640Z,85.70
2019-03-21T07:14:14.540Z,82.60
2019-03-21T07:16:42.938Z,86.53
2019-03-21T07:19:11.183Z,111.87
2019-03-21T07:21:39.436Z,115.17
2019-03-21T07:24:07.660Z,73.20
2019-03-21T07:26:35.791Z,89.90
2019-03-21T07:29:06.461Z,66.60
2019-03-21T07:31:36.754Z,65.70
2019-03-21T07:34:05.052Z,76.77
2019-03-21T07:36:39.840Z,58.27
2019-03-21T07:39:12.656Z,72.27
2019-03-21T07:41:43.288Z,75.07
2019-03-21T07:44:19.394Z,63.37
2019-03-21T07:46:47.645Z,65.10
2019-03-21T07:49:15.790Z,73.97
2019-03-21T07:51:46.680Z,60.83
2019-03-21T07:54:14.832Z,46.00
2019-03-21T07:56:45.744Z,45.97
2019-03-21T07:59:14.136Z,42.53
2019-03-21T08:01:42.235Z,33.40
2019-03-21T08:04:14.784Z,29.23
2019-03-21T08:06:45.500Z,26.23
2019-03-21T08:09:15.963Z,24.03
2019-03-21T08:11:47.070Z,20.27
2019-03-21T08:14:20.236Z,20.30
2019-03-21T08:16:48.535Z,21.37
2019-03-21T08:19:16.726Z,18.23
2019-03-21T08:21:45.060Z,14.37
2019-03-21T08:24:18.120Z,11.47
2019-03-21T08:26:46.540Z,10.40
2019-03-21T08:29:19.207Z,10.57
2019-03-21T08:31:47.482Z,10.07
2019-03-21T08:34:22.627Z,9.50
2019-03-21T08:36:50.991Z,9.23
2019-03-21T08:39:19.337Z,9.30
2019-03-21T08:41:47.643Z,9.73
2019-03-21T08:44:18.563Z,7.90
2019-03-21T08:46:50.164Z,6.53
2019-03-21T08:49:21.038Z,6.83
2019-03-21T08:51:51.945Z,12.50
2019-03-21T08:54:22.296Z,9.37
2019-03-21T08:56:52.987Z,9.43
2019-03-21T08:59:23.649Z,6.40
2019-03-21T09:02:00.268Z,10.00
2019-03-21T09:04:30.838Z,9.27
2019-03-21T09:06:59.210Z,12.77
2019-03-21T09:09:31.884Z,8.30
2019-03-21T09:12:00.258Z,13.23
2019-03-21T09:14:28.953Z,9.63
2019-03-21T09:16:59.482Z,9.90
2019-03-21T09:19:28.371Z,8.63
2019-03-21T09:21:56.854Z,11.97
2019-03-21T09:24:31.412Z,9.83
2019-03-21T09:26:59.720Z,10.30
2019-03-21T09:29:34.845Z,11.57
2019-03-21T09:32:07.242Z,9.20
2019-03-21T09:34:41.843Z,8.73
2019-03-21T09:37:12.676Z,9.30
2019-03-21T09:39:43.514Z,10.20
2019-03-21T09:42:11.796Z,13.27
2019-03-21T09:44:42.425Z,10.97
2019-03-21T09:47:12.746Z,17.63
2019-03-21T09:49:41.035Z,14.73
2019-03-21T09:52:12.070Z,12.67
2019-03-21T09:54:42.693Z,9.37
2019-03-21T09:57:13.522Z,17.67
2019-03-21T09:59:46.233Z,15.30
2019-03-21T10:02:14.333Z,13.47
2019-03-21T10:04:45.102Z,10.00
2019-03-21T10:07:13.401Z,12.60
2019-03-21T10:09:44.130Z,9.90
2019-03-21T10:12:12.734Z,12.13
2019-03-21T10:14:43.606Z,14.60
2019-03-21T10:17:14.143Z,12.13
2019-03-21T10:19:42.406Z,15.90
2019-03-21T10:22:13.128Z,13.27
2019-03-21T10:24:44.019Z,16.73
2019-03-21T10:27:12.357Z,13.07
2019-03-21T10:29:43.089Z,23.70
2019-03-21T10:32:14.687Z,13.57
2019-03-21T10:34:45.986Z,13.47
2019-03-21T10:37:17.027Z,16.30
2019-03-21T10:39:47.799Z,13.53
2019-03-21T10:42:18.683Z,11.97
2019-03-21T10:44:47.115Z,13.30
2019-03-21T10:47:15.590Z,13.03
2019-03-21T10:49:49.630Z,10.43
2019-03-21T10:52:20.604Z,10.60
2019-03-21T10:54:48.968Z,13.63
2019-03-21T10:57:17.365Z,15.07
2019-03-21T10:59:46.203Z,13.83
2019-03-21T11:02:19.133Z,12.97
2019-03-21T11:04:52.206Z,17.00
2019-03-21T11:07:20.005Z,13.30
2019-03-21T11:09:50.527Z,14.13
2019-03-21T11:12:18.771Z,15.07
2019-03-21T11:14:47.088Z,13.50
2019-03-21T11:17:15.426Z,16.60
2019-03-21T11:19:44.072Z,17.17
2019-03-21T11:22:14.792Z,16.00
2019-03-21T11:24:43.335Z,16.37
2019-03-21T11:27:13.969Z,16.60
2019-03-21T11:29:44.935Z,16.53
2019-03-21T11:32:15.674Z,15.40
2019-03-21T11:34:44.122Z,18.13
2019-03-21T11:37:14.603Z,16.30
2019-03-21T11:39:45.281Z,16.23
2019-03-21T11:42:13.599Z,16.17
2019-03-21T11:44:42.600Z,17.70
2019-03-21T11:47:13.107Z,23.50
2019-03-21T11:49:41.262Z,16.17
2019-03-21T11:52:18.114Z,15.00
2019-03-21T11:54:44.893Z,15.10
2019-03-21T11:57:15.606Z,14.43
2019-03-21T11:59:51.478Z,15.30
2019-03-21T12:02:14.213Z,16.47
2019-03-21T12:04:44.838Z,15.77
2019-03-21T12:07:15.422Z,12.37
2019-03-21T12:09:46.447Z,14.50
2019-03-21T12:12:17.109Z,14.17
2019-03-21T12:14:47.958Z,14.47
2019-03-21T12:17:23.229Z,19.70
2019-03-21T12:19:51.423Z,17.27
2019-03-21T12:22:29.402Z,19.30
2019-03-21T12:24:50.021Z,13.70
2019-03-21T12:27:21.022Z,14.33
2019-03-21T12:29:51.724Z,10.23
2019-03-21T12:32:22.608Z,10.93
2019-03-21T12:34:50.889Z,11.53
2019-03-21T12:37:21.493Z,16.07
2019-03-21T12:39:50.001Z,11.97
2019-03-21T12:42:20.653Z,11.87
2019-03-21T12:44:51.380Z,9.50
2019-03-21T12:47:30.847Z,12.23
2019-03-21T12:49:51.918Z,12.37
2019-03-21T12:52:20.312Z,12.60
2019-03-21T12:54:53.806Z,16.23
2019-03-21T12:57:24.299Z,14.37
2019-03-21T12:59:52.665Z,17.93
2019-03-21T13:02:31.865Z,15.23
2019-03-21T13:04:57.609Z,14.53
2019-03-21T13:07:28.609Z,12.87
2019-03-21T13:09:59.398Z,12.97
2019-03-21T13:12:29.968Z,15.13
2019-03-21T13:15:02.957Z,13.30
2019-03-21T13:17:34.178Z,13.33
2019-03-21T13:20:02.415Z,17.20
2019-03-21T13:22:33.208Z,15.43
2019-03-21T13:25:05.326Z,11.50
2019-03-21T13:27:33.881Z,11.37
2019-03-21T13:30:09.930Z,10.43
2019-03-21T13:32:41.237Z,11.43
2019-03-21T13:35:11.766Z,13.50
2019-03-21T13:37:42.662Z,12.03
2019-03-21T13:40:13.213Z,9.47
2019-03-21T13:42:43.862Z,10.97
2019-03-21T13:45:12.202Z,10.67
2019-03-21T13:47:40.339Z,9.40
2019-03-21T13:50:12.882Z,14.17
2019-03-21T13:52:43.785Z,12.70
2019-03-21T13:55:15.449Z,8.40
2019-03-21T13:57:46.296Z,14.40
2019-03-21T14:00:16.025Z,13.00
2019-03-21T14:02:44.744Z,11.00
2019-03-21T14:05:17.123Z,11.27
2019-03-21T14:07:45.499Z,9.37
2019-03-21T14:10:14.032Z,12.13
2019-03-21T14:12:42.188Z,11.97
2019-03-21T14:15:14.122Z,19.20
2019-03-21T14:17:44.728Z,17.70
2019-03-21T14:20:15.126Z,17.97
2019-03-21T14:22:43.680Z,15.27
2019-03-21T14:25:17.186Z,14.80
2019-03-21T14:27:45.614Z,20.43
2019-03-21T14:30:14.973Z,14.83
2019-03-21T14:32:46.336Z,17.83
2019-03-21T14:35:21.529Z,13.60
2019-03-21T14:37:52.021Z,12.90
2019-03-21T14:40:23.222Z,14.60
2019-03-21T14:42:51.465Z,12.77
2019-03-21T14:45:22.291Z,12.80
2019-03-21T14:47:53.511Z,15.33
2019-03-21T14:50:23.850Z,13.10
2019-03-21T14:52:54.798Z,18.93
2019-03-21T14:55:25.387Z,13.63
2019-03-21T14:57:54.608Z,19.10
2019-03-21T15:00:23.008Z,17.13
2019-03-21T15:02:53.783Z,52.07
2019-03-21T15:05:26.366Z,37.97
2019-03-21T15:07:55.566Z,31.47
2019-03-21T15:10:26.051Z,50.80
2019-03-21T15:13:01.473Z,21.53
2019-03-21T15:15:32.176Z,31.17
2019-03-21T15:18:00.400Z,24.47
2019-03-21T15:20:33.284Z,39.73
2019-03-21T15:23:01.664Z,31.23
2019-03-21T15:25:30.233Z,16.67
2019-03-21T15:28:00.928Z,42.90
2019-03-21T15:30:30.078Z,22.57
2019-03-21T15:33:00.452Z,46.10
2019-03-21T15:35:29.330Z,47.30
2019-03-21T15:37:59.024Z,30.37
2019-03-21T15:40:27.926Z,28.43
2019-03-21T15:43:01.310Z,26.57
2019-03-21T15:45:29.516Z,33.03
2019-03-21T15:47:58.632Z,38.87
2019-03-21T15:50:28.859Z,26.97
2019-03-21T15:53:00.076Z,24.83
2019-03-21T15:55:30.642Z,26.70
2019-03-21T15:58:03.158Z,31.30
2019-03-21T16:00:38.925Z,27.63
2019-03-21T16:03:07.547Z,27.63
2019-03-21T16:05:36.828Z,26.13
2019-03-21T16:08:05.343Z,44.07
2019-03-21T16:10:37.531Z,50.80
2019-03-21T16:13:13.261Z,44.80
2019-03-21T16:15:43.837Z,53.90
2019-03-21T16:18:12.062Z,35.93
2019-03-21T16:20:40.716Z,35.07
2019-03-21T16:23:10.892Z,26.57
2019-03-21T16:25:39.921Z,27.67
2019-03-21T16:28:08.569Z,39.87
2019-03-21T16:30:39.393Z,40.17
2019-03-21T16:33:08.049Z,48.70
2019-03-21T16:35:44.612Z,40.13
2019-03-21T16:38:15.348Z,35.67
2019-03-21T16:40:48.767Z,57.67
2019-03-21T16:43:20.563Z,40.07
2019-03-21T16:45:51.564Z,43.43
2019-03-21T16:48:23.163Z,38.70
2019-03-21T16:50:53.652Z,67.53
2019-03-21T16:53:24.455Z,30.60
2019-03-21T16:55:55.155Z,19.00
2019-03-21T16:58:32.242Z,15.03
2019-03-21T17:01:03.037Z,15.37
2019-03-21T17:03:36.535Z,17.67
2019-03-21T17:06:09.410Z,24.53
2019-03-21T17:08:40.394Z,36.37
2019-03-21T17:11:10.970Z,42.03
2019-03-21T17:13:39.193Z,47.77
2019-03-21T17:16:11.937Z,114.73
2019-03-21T17:18:40.388Z,54.20
2019-03-21T17:21:09.720Z,53.87
2019-03-21T17:23:38.614Z,56.03
2019-03-21T17:26:09.406Z,89.97
2019-03-21T17:28:40.236Z,189.83
2019-03-21T17:31:11.185Z,172.20
2019-03-21T17:33:41.888Z,198.63
2019-03-21T17:36:10.047Z,231.73
2019-03-21T17:38:43.415Z,221.60
2019-03-21T17:41:14.354Z,224.03
2019-03-21T17:43:44.939Z,220.90
2019-03-21T17:46:15.208Z,229.50
2019-03-21T17:48:43.562Z,248.47
2019-03-21T17:51:16.447Z,215.07
2019-03-21T17:53:44.921Z,165.90
2019-03-21T17:56:13.459Z,133.00
2019-03-21T17:58:41.781Z,194.87
2019-03-21T18:01:13.030Z,212.87
2019-03-21T18:03:41.524Z,293.53
2019-03-21T18:06:15.184Z,247.67
2019-03-21T18:08:46.068Z,181.57
2019-03-21T18:11:14.490Z,168.03
2019-03-21T18:13:45.919Z,97.67
2019-03-21T18:16:18.696Z,100.27
2019-03-21T18:18:49.342Z,89.97
2019-03-21T18:21:17.530Z,101.57
2019-03-21T18:23:46.023Z,96.23
2019-03-21T18:26:16.885Z,95.33
2019-03-21T18:28:47.459Z,111.47
2019-03-21T18:31:15.788Z,96.03
2019-03-21T18:33:48.656Z,109.50
2019-03-21T18:36:19.621Z,98.60
2019-03-21T18:38:58.624Z,102.10
2019-03-21T18:41:27.226Z,118.90
2019-03-21T18:43:55.472Z,116.47
2019-03-21T18:46:26.438Z,130.13
2019-03-21T18:48:57.305Z,189.73
2019-03-21T18:51:26.261Z,213.27
2019-03-21T18:53:54.834Z,203.57
2019-03-21T18:56:25.480Z,138.03
2019-03-21T18:58:53.837Z,142.20
2019-03-21T19:01:22.232Z,147.87
2019-03-21T19:03:52.743Z,157.97
2019-03-21T19:06:20.911Z,154.30
2019-03-21T19:08:56.962Z,161.80
2019-03-21T19:11:26.802Z,144.43
2019-03-21T19:13:55.372Z,141.80
2019-03-21T19:16:24.436Z,143.30
2019-03-21T19:18:53.008Z,143.30
2019-03-21T19:21:23.493Z,127.87
2019-03-21T19:23:52.069Z,129.60
2019-03-21T19:26:22.801Z,147.53
2019-03-21T19:28:53.449Z,145.23
2019-03-21T19:31:42.140Z,162.70
2019-03-21T19:34:10.445Z,137.57
2019-03-21T19:36:38.590Z,163.80
2019-03-21T19:39:09.370Z,146.07
2019-03-21T19:41:40.508Z,164.37
2019-03-21T19:44:08.878Z,158.93
2019-03-21T19:46:37.335Z,142.90
2019-03-21T19:49:07.977Z,151.57
2019-03-21T19:51:38.576Z,132.40
2019-03-21T19:54:06.885Z,122.60
2019-03-21T19:56:35.378Z,135.97
2019-03-21T19:59:06.030Z,111.63
2019-03-21T20:01:36.393Z,123.87
2019-03-21T20:04:07.039Z,116.00
2019-03-21T20:06:37.650Z,113.30
2019-03-21T20:09:13.030Z,112.23
2019-03-21T20:11:42.448Z,108.10
2019-03-21T20:14:10.639Z,85.40
2019-03-21T20:16:39.152Z,92.47
2019-03-21T20:19:07.585Z,86.63
2019-03-21T20:21:47.295Z,128.63
2019-03-21T20:24:10.763Z,168.53
2019-03-21T20:26:39.412Z,152.50
2019-03-21T20:29:10.166Z,144.10
2019-03-21T20:31:41.447Z,113.40
2019-03-21T20:34:14.735Z,146.30
2019-03-21T20:36:47.880Z,120.83
2019-03-21T20:39:18.532Z,155.77
2019-03-21T20:41:46.840Z,136.17
2019-03-21T20:44:15.687Z,158.47
2019-03-21T20:46:44.345Z,152.67
2019-03-21T20:49:14.932Z,166.40
2019-03-21T20:51:45.543Z,181.60
2019-03-21T20:54:18.018Z,211.13
2019-03-21T20:56:48.524Z,183.97
2019-03-21T20:59:19.100Z,158.33
2019-03-21T21:01:49.800Z,148.47
2019-03-21T21:04:18.086Z,151.03
2019-03-21T21:06:49.032Z,120.60
2019-03-21T21:09:20.270Z,119.97
2019-03-21T21:11:53.584Z,131.53
2019-03-21T21:14:25.348Z,153.60
2019-03-21T21:16:53.987Z,130.63
2019-03-21T21:19:29.665Z,135.17
2019-03-21T21:22:00.399Z,132.60
2019-03-21T21:24:31.383Z,151.17
2019-03-21T21:26:59.628Z,152.90
2019-03-21T21:29:27.872Z,154.07
2019-03-21T21:31:58.680Z,169.20
2019-03-21T21:34:27.488Z,140.33
2019-03-21T21:36:58.067Z,144.53
2019-03-21T21:39:26.571Z,176.03
2019-03-21T21:41:59.466Z,182.27
2019-03-21T21:44:27.895Z,151.67
2019-03-21T21:46:56.122Z,162.13
2019-03-21T21:49:24.512Z,169.97
2019-03-21T21:51:52.889Z,164.60
2019-03-21T21:54:26.016Z,152.90
2019-03-21T21:56:57.043Z,154.00
2019-03-21T21:59:27.868Z,147.80
2019-03-21T22:01:56.049Z,140.90
2019-03-21T22:04:26.670Z,131.83
2019-03-21T22:06:57.356Z,132.93
2019-03-21T22:09:28.185Z,139.03
2019-03-21T22:12:04.047Z,144.83
2019-03-21T22:14:35.214Z,123.93
2019-03-21T22:17:06.861Z,178.40
2019-03-21T22:19:37.708Z,166.73
2019-03-21T22:22:08.317Z,186.70
2019-03-21T22:24:37.048Z,166.60
2019-03-21T22:27:07.569Z,166.57
2019-03-21T22:29:35.804Z,170.27
2019-03-21T22:32:06.745Z,177.37
2019-03-21T22:34:37.396Z,184.00
2019-03-21T22:37:10.270Z,139.73
2019-03-21T22:39:40.950Z,169.03
2019-03-21T22:42:16.344Z,181.63
2019-03-21T22:44:46.938Z,176.57
2019-03-21T22:47:18.292Z,199.77
2019-03-21T22:49:46.911Z,177.37
2019-03-21T22:52:15.306Z,199.17
2019-03-21T22:54:52.681Z,186.43
2019-03-21T22:57:23.526Z,145.57
2019-03-21T22:59:54.241Z,143.20
2019-03-21T23:02:25.286Z,150.53
2019-03-21T23:04:54.178Z,104.93
2019-03-21T23:07:24.999Z,118.27
2019-03-21T23:09:53.571Z,121.70
2019-03-21T23:12:24.443Z,115.80
2019-03-21T23:14:58.005Z,119.93
2019-03-21T23:17:26.413Z,112.97
2019-03-21T23:19:58.345Z,93.93
2019-03-21T23:22:29.293Z,89.30
2019-03-21T23:24:59.947Z,96.77
2019-03-21T23:27:35.197Z,101.97
2019-03-21T23:30:05.162Z,84.87
2019-03-21T23:32:33.521Z,73.00
2019-03-21T23:35:05.620Z,69.73
2019-03-21T23:37:36.867Z,69.30
2019-03-21T23:40:06.358Z,74.87
2019-03-21T23:42:34.712Z,70.73
2019-03-21T23:45:03.805Z,71.63
2019-03-21T23:47:36.871Z,74.00
2019-03-21T23:50:16.170Z,79.13
2019-03-21T23:52:46.927Z,81.13
2019-03-21T23:55:17.596Z,85.90
2019-03-21T23:57:45.747Z,116.47
